Time;durP1;ratioP1;P1;durP2;ratioP2;P2;SDS_P1;SDS_P2;PMS_P1;PMS_P2;Temp;Humidity;BMP_temperature;BMP_pressure;BME280_temperature;BME280_humidity;BME280_pressure;Samples;Min_cycle;Max_cycle;Signal;HPM_P1;HPM_P2
2022/12/02 00:00:26;;;;;;;;;56.00;41.25;;;;;6.62;100.00;102219.28;5051656;28;47361;-80
2022/12/02 00:02:55;;;;;;;;;51.50;41.25;;;;;6.65;100.00;102203.75;5050768;28;45344;-80
2022/12/02 00:05:30;;;;;;;;;50.50;37.25;;;;;6.64;100.00;102202.06;5051902;28;45360;-80
2022/12/02 00:08:01;;;;;;;;;50.25;40.00;;;;;6.60;100.00;102207.69;5051538;28;45593;-80
2022/12/02 00:10:32;;;;;;;;;52.00;43.50;;;;;6.62;100.00;102205.78;5051797;28;45578;-80
2022/12/02 00:13:22;;;;;;;;;45.50;39.00;;;;;6.60;100.00;102202.28;5053506;28;45342;-80
2022/12/02 00:16:21;;;;;;;;;62.75;44.75;;;;;6.50;100.00;102201.09;5054404;28;45426;-79
2022/12/02 00:18:46;;;;;;;;;51.50;41.00;;;;;6.49;100.00;102185.84;5053495;28;45322;-80
2022/12/02 00:21:11;;;;;;;;;49.25;36.50;;;;;6.58;100.00;102196.09;5053701;28;46748;-80
2022/12/02 00:23:37;;;;;;;;;46.25;38.50;;;;;6.50;100.00;102187.59;5067431;28;45446;-80
2022/12/02 00:26:02;;;;;;;;;58.75;43.25;;;;;6.43;100.00;102172.72;5051101;28;45363;-80
2022/12/02 00:28:27;;;;;;;;;54.75;43.25;;;;;6.47;100.00;102185.06;5052393;28;45456;-80
2022/12/02 00:30:53;;;;;;;;;52.00;41.25;;;;;6.58;100.00;102188.00;5053555;28;50852;-80
2022/12/02 00:33:18;;;;;;;;;52.50;41.25;;;;;6.52;100.00;102183.81;5068323;28;45324;-81
2022/12/02 00:35:44;;;;;;;;;61.25;44.75;;;;;6.51;100.00;102189.31;5050985;28;45386;-80
2022/12/02 00:38:09;;;;;;;;;56.25;41.75;;;;;6.46;100.00;102167.13;5052862;28;45393;-79
2022/12/02 00:40:35;;;;;;;;;48.50;41.00;;;;;6.54;100.00;102181.91;5052677;28;45732;-80
2022/12/02 00:48:28;;;;;;;;;55.25;44.25;;;;;6.49;100.00;102162.44;5052209;28;45373;-80
2022/12/02 00:50:53;;;;;;;;;55.25;42.75;;;;;6.45;100.00;102162.66;5058289;28;47749;-80
2022/12/02 00:53:19;;;;;;;;;57.00;45.00;;;;;6.47;100.00;102156.22;5054357;28;45333;-80
2022/12/02 00:55:44;;;;;;;;;57.00;43.00;;;;;6.59;100.00;102157.34;5052564;28;45346;-80
2022/12/02 00:58:09;;;;;;;;;46.00;40.50;;;;;6.54;100.00;102160.31;5051504;28;45504;-80
2022/12/02 01:00:35;;;;;;;;;48.50;38.50;;;;;6.48;100.00;102157.09;5050982;28;45617;-80
2022/12/02 01:03:00;;;;;;;;;56.00;42.00;;;;;6.58;100.00;102166.41;5052871;28;45405;-80
2022/12/02 01:05:25;;;;;;;;;57.75;44.25;;;;;6.51;100.00;102159.63;5059617;28;45396;-80
2022/12/02 01:07:51;;;;;;;;;59.50;40.25;;;;;6.54;100.00;102164.84;5053310;28;45284;-80
2022/12/02 01:10:16;;;;;;;;;56.25;44.75;;;;;6.53;100.00;102155.00;5056796;28;46808;-80
2022/12/02 01:12:41;;;;;;;;;43.00;39.00;;;;;6.46;100.00;102140.97;5059933;28;45800;-80
2022/12/02 01:15:07;;;;;;;;;56.75;43.50;;;;;6.52;100.00;102151.44;5053206;28;45356;-79
2022/12/02 01:17:33;;;;;;;;;54.00;41.75;;;;;6.57;100.00;102156.59;5052783;28;45259;-80
2022/12/02 01:19:58;;;;;;;;;53.25;43.75;;;;;6.56;100.00;102153.00;5050807;28;46025;-79
2022/12/02 01:22:24;;;;;;;;;51.50;41.25;;;;;6.53;100.00;102144.19;5051374;28;45255;-79
2022/12/02 01:24:49;;;;;;;;;59.50;42.00;;;;;6.49;100.00;102150.75;5051611;28;45742;-80
2022/12/02 01:27:14;;;;;;;;;65.75;49.00;;;;;6.41;100.00;102148.50;5054414;28;45326;-80
2022/12/02 01:29:40;;;;;;;;;52.00;41.50;;;;;6.54;100.00;102154.03;5057780;28;48311;-80
2022/12/02 01:32:05;;;;;;;;;53.00;41.50;;;;;6.50;100.00;102164.13;5058012;28;45428;-79
2022/12/02 01:34:30;;;;;;;;;58.75;45.75;;;;;6.50;100.00;102164.13;5060546;28;45278;-80
2022/12/02 01:36:58;;;;;;;;;61.00;46.25;;;;;6.46;100.00;102150.91;5060176;28;45383;-80
2022/12/02 01:39:24;;;;;;;;;61.25;47.00;;;;;6.31;100.00;102136.47;5067728;28;48480;-80
2022/12/02 01:41:49;;;;;;;;;52.50;41.00;;;;;6.39;100.00;102155.78;5048950;28;45447;-80
2022/12/02 01:44:15;;;;;;;;;34.50;28.50;;;;;6.33;100.00;102155.28;5051391;28;45408;-80
2022/12/02 01:46:41;;;;;;;;;55.50;45.00;;;;;6.35;100.00;102153.38;5053680;28;45544;-79
2022/12/02 01:49:07;;;;;;;;;57.50;45.25;;;;;6.37;100.00;102162.22;5058811;28;46918;-80
2022/12/02 01:51:32;;;;;;;;;56.50;43.00;;;;;6.28;100.00;102163.66;5049972;28;45369;-80
2022/12/02 01:53:58;;;;;;;;;61.00;42.25;;;;;6.33;100.00;102160.69;5050328;28;45671;-80
2022/12/02 01:56:26;;;;;;;;;61.50;47.75;;;;;6.33;100.00;102155.28;5050419;28;45351;-79
2022/12/02 01:58:51;;;;;;;;;66.00;48.50;;;;;6.38;100.00;102154.03;5058160;28;47873;-79
2022/12/02 02:01:33;;;;;;;;;55.25;42.75;;;;;6.44;100.00;102169.88;5051741;28;45330;-79
2022/12/02 02:04:01;;;;;;;;;58.00;39.75;;;;;6.40;100.00;102156.66;5052854;28;45279;-79
2022/12/02 02:06:31;;;;;;;;;62.50;43.25;;;;;6.46;100.00;102156.31;5058165;28;45344;-80
2022/12/02 02:08:57;;;;;;;;;51.00;40.75;;;;;6.52;100.00;102173.03;5051118;28;45498;-80
2022/12/02 02:11:23;;;;;;;;;47.75;38.00;;;;;6.57;100.00;102175.50;5049595;28;45668;-80
2022/12/02 02:13:49;;;;;;;;;57.00;42.75;;;;;6.48;100.00;102138.22;5060671;28;45258;-80
2022/12/02 02:16:15;;;;;;;;;58.50;41.50;;;;;6.58;100.00;102152.91;5061872;28;45369;-80
2022/12/02 02:18:41;;;;;;;;;60.75;48.25;;;;;6.50;100.00;102149.78;5060187;28;47225;-80
2022/12/02 02:21:17;;;;;;;;;57.50;39.25;;;;;6.47;100.00;102141.84;5060110;28;45421;-80
2022/12/02 02:23:42;;;;;;;;;61.00;44.75;;;;;6.44;100.00;102133.91;5060156;28;45408;-80
2022/12/02 02:26:08;;;;;;;;;62.25;46.00;;;;;6.46;100.00;102142.81;5060490;28;45397;-80
2022/12/02 02:28:33;;;;;;;;;62.00;44.25;;;;;6.51;100.00;102138.00;5061531;28;45786;-80
2022/12/02 02:30:59;;;;;;;;;58.25;41.00;;;;;6.39;100.00;102128.81;5061917;28;45301;-80
2022/12/02 02:33:27;;;;;;;;;58.25;44.50;;;;;6.45;100.00;102127.56;5052421;28;45415;-80
2022/12/02 02:35:53;;;;;;;;;51.00;41.75;;;;;6.44;100.00;102128.53;5064140;28;45250;-80
2022/12/02 02:38:22;;;;;;;;;61.75;45.50;;;;;6.53;100.00;102133.41;5064391;28;48395;-80
2022/12/02 02:40:49;;;;;;;;;56.50;44.25;;;;;6.49;100.00;102126.44;5065307;28;45337;-80
2022/12/02 02:43:16;;;;;;;;;57.00;43.25;;;;;6.42;100.00;102106.16;5065871;28;45254;-81
2022/12/02 02:45:43;;;;;;;;;57.00;41.25;;;;;6.51;100.00;102117.28;5066198;28;45222;-80
2022/12/02 02:48:10;;;;;;;;;58.00;45.00;;;;;6.46;100.00;102121.22;5065628;28;45344;-80
2022/12/02 02:50:39;;;;;;;;;54.25;43.25;;;;;6.38;100.00;102127.06;5065671;28;45230;-80
2022/12/02 02:53:05;;;;;;;;;42.00;32.25;;;;;6.29;100.00;102113.19;5064674;28;45490;-79
2022/12/02 02:55:32;;;;;;;;;59.25;41.00;;;;;6.37;100.00;102114.50;5064755;28;45438;-80
2022/12/02 02:58:12;;;;;;;;;55.25;41.00;;;;;6.36;100.00;102120.00;5065364;28;45413;-79
2022/12/02 03:00:42;;;;;;;;;48.00;41.25;;;;;6.36;100.00;102111.91;5065589;28;45336;-81
2022/12/02 03:03:11;;;;;;;;;54.75;43.50;;;;;6.39;100.00;102119.81;5064092;28;45359;-81
2022/12/02 03:05:38;;;;;;;;;62.50;49.50;;;;;6.34;100.00;102111.13;5065989;28;45391;-79
2022/12/02 03:08:04;;;;;;;;;47.75;38.50;;;;;6.34;100.00;102111.13;5065234;28;46284;-79
2022/12/02 03:10:30;;;;;;;;;58.50;44.00;;;;;6.34;100.00;102100.34;5064134;28;45256;-80
2022/12/02 03:12:55;;;;;;;;;54.75;42.00;;;;;6.34;100.00;102101.22;5065362;28;45261;-80
2022/12/02 03:15:23;;;;;;;;;55.75;41.00;;;;;6.30;100.00;102106.84;5064605;28;45277;-80
2022/12/02 03:17:49;;;;;;;;;55.00;40.50;;;;;6.36;100.00;102106.50;5065236;28;45628;-80
2022/12/02 03:20:15;;;;;;;;;60.75;44.75;;;;;6.35;100.00;102107.47;5053717;28;45178;-79
2022/12/02 03:22:41;;;;;;;;;55.25;41.50;;;;;6.32;100.00;102099.53;5045028;28;45386;-79
2022/12/02 03:25:07;;;;;;;;;57.00;43.25;;;;;6.28;100.00;102095.31;5045366;28;45336;-80
2022/12/02 03:27:33;;;;;;;;;49.50;40.25;;;;;6.31;100.00;102097.81;5060101;28;48081;-79
2022/12/02 03:29:59;;;;;;;;;54.25;40.00;;;;;6.37;100.00;102097.44;5060265;28;45286;-80
2022/12/02 03:32:25;;;;;;;;;49.50;40.50;;;;;6.25;100.00;102078.31;5043656;28;45425;-79
2022/12/02 03:34:51;;;;;;;;;63.50;46.25;;;;;6.34;100.00;102093.13;5060889;28;45462;-79
2022/12/02 03:37:17;;;;;;;;;59.25;44.75;;;;;6.29;100.00;102094.31;5044534;28;46125;-79
2022/12/02 03:39:42;;;;;;;;;57.00;45.00;;;;;6.28;100.00;102084.50;5054217;28;45211;-79
2022/12/02 03:42:08;;;;;;;;;52.00;41.00;;;;;6.27;100.00;102080.94;5060405;28;45246;-79
2022/12/02 03:44:33;;;;;;;;;54.75;43.25;;;;;6.27;100.00;102074.66;5060602;28;45467;-80
2022/12/02 03:47:00;;;;;;;;;50.25;41.00;;;;;6.28;100.00;102068.31;5061876;28;46254;-79
2022/12/02 03:49:26;;;;;;;;;49.50;40.50;;;;;6.33;100.00;102075.16;5063318;28;45354;-79
2022/12/02 03:51:51;;;;;;;;;51.75;42.75;;;;;6.33;100.00;102071.59;5080240;28;45304;-79
2022/12/02 03:54:17;;;;;;;;;59.00;43.00;;;;;6.38;100.00;102073.06;5065134;28;45770;-79
2022/12/02 03:56:42;;;;;;;;;58.00;43.75;;;;;6.32;100.00;102083.34;5064621;28;45736;-79
2022/12/02 03:59:10;;;;;;;;;58.75;42.75;;;;;6.40;100.00;102081.09;5064818;28;45342;-80
2022/12/02 04:01:35;;;;;;;;;54.00;44.25;;;;;6.35;100.00;102069.69;5064603;28;45333;-79
2022/12/02 04:04:01;;;;;;;;;62.50;42.75;;;;;6.37;100.00;102070.44;5063630;28;45179;-79
2022/12/02 04:06:26;;;;;;;;;51.25;40.50;;;;;6.46;100.00;102073.50;5059714;28;47205;-79
2022/12/02 04:08:51;;;;;;;;;59.00;41.50;;;;;6.40;100.00;102071.16;5055096;28;45688;-79
2022/12/02 04:11:17;;;;;;;;;61.75;44.00;;;;;6.47;100.00;102068.97;5064429;28;45294;-79
2022/12/02 04:13:42;;;;;;;;;42.50;37.75;;;;;6.42;100.00;102053.06;5063503;28;45152;-79
2022/12/02 04:16:07;;;;;;;;;58.50;44.50;;;;;6.43;100.00;102045.81;5064139;28;45370;-79
2022/12/02 04:18:33;;;;;;;;;60.00;41.75;;;;;6.37;100.00;102048.84;5064193;28;45432;-79
2022/12/02 04:20:58;;;;;;;;;60.50;45.00;;;;;6.39;100.00;102041.53;5047198;28;45388;-79
2022/12/02 04:23:24;;;;;;;;;54.50;43.75;;;;;6.44;100.00;102044.84;5059916;28;45507;-79
2022/12/02 04:25:49;;;;;;;;;60.25;42.00;;;;;6.40;100.00;102043.28;5044021;28;46786;-79
2022/12/02 04:28:15;;;;;;;;;60.00;46.25;;;;;6.44;100.00;102042.13;5044290;28;45610;-79
2022/12/02 04:30:40;;;;;;;;;58.00;45.00;;;;;6.45;100.00;102043.88;5059332;28;45312;-80
2022/12/02 04:33:05;;;;;;;;;61.00;44.75;;;;;6.41;100.00;102047.72;5042981;28;45289;-82
2022/12/02 04:35:31;;;;;;;;;61.25;44.75;;;;;6.42;100.00;102044.09;5058680;28;48099;-79
2022/12/02 04:37:56;;;;;;;;;65.00;48.75;;;;;6.47;100.00;102050.06;5043783;28;45330;-79
2022/12/02 04:40:21;;;;;;;;;53.25;40.75;;;;;6.46;100.00;102048.31;5043499;28;45355;-79
2022/12/02 04:42:47;;;;;;;;;61.75;47.00;;;;;6.42;100.00;102047.66;5044285;28;45288;-80
2022/12/02 04:45:13;;;;;;;;;59.00;47.75;;;;;6.34;100.00;102040.97;5042125;28;46182;-79
2022/12/02 04:47:39;;;;;;;;;57.50;45.25;;;;;6.45;100.00;102038.47;5042394;28;45294;-80
2022/12/02 04:50:05;;;;;;;;;54.00;43.25;;;;;6.46;100.00;102043.78;5042140;28;45296;-80
2022/12/02 04:52:31;;;;;;;;;63.75;47.75;;;;;6.39;100.00;102036.16;5049892;28;45412;-79
2022/12/02 04:54:56;;;;;;;;;56.25;42.25;;;;;6.46;100.00;102040.22;5062578;28;46268;-80
2022/12/02 04:57:21;;;;;;;;;61.75;42.75;;;;;6.45;100.00;102041.19;5063325;28;45248;-80
2022/12/02 04:59:47;;;;;;;;;64.00;45.50;;;;;6.36;100.00;102034.47;5062059;28;45992;-80
2022/12/02 05:02:12;;;;;;;;;32.75;29.25;;;;;6.43;100.00;102019.66;5079365;28;45678;-79
2022/12/02 05:04:37;;;;;;;;;58.25;43.25;;;;;6.60;100.00;102034.88;5063162;28;45296;-79
2022/12/02 05:07:03;;;;;;;;;68.75;45.00;;;;;6.40;100.00;102021.69;5062193;28;45840;-79
2022/12/02 05:09:28;;;;;;;;;56.25;46.25;;;;;6.36;100.00;102020.13;5059899;28;45257;-79
2022/12/02 05:11:53;;;;;;;;;55.75;45.25;;;;;6.46;100.00;102021.31;5052541;28;45235;-79
2022/12/02 05:14:18;;;;;;;;;65.75;50.00;;;;;6.46;100.00;102024.03;5061802;28;48388;-79
2022/12/02 05:16:44;;;;;;;;;60.50;46.00;;;;;6.41;100.00;102018.03;5062902;28;45203;-80
2022/12/02 05:19:09;;;;;;;;;59.75;48.00;;;;;6.41;100.00;102018.03;5061129;28;45302;-80
2022/12/02 05:21:34;;;;;;;;;60.50;46.25;;;;;6.47;100.00;102017.66;5043503;28;45172;-79
2022/12/02 05:24:00;;;;;;;;;60.75;45.50;;;;;6.55;100.00;102012.69;5042838;28;45421;-80
2022/12/02 05:26:25;;;;;;;;;64.75;45.00;;;;;6.61;100.00;102012.31;5043304;28;45263;-79
2022/12/02 05:28:50;;;;;;;;;57.00;45.00;;;;;6.60;100.00;102006.03;5041627;28;45272;-79
2022/12/02 05:31:16;;;;;;;;;60.50;46.75;;;;;6.55;100.00;101997.34;5043493;28;45432;-79
2022/12/02 05:33:41;;;;;;;;;74.50;53.75;;;;;6.53;100.00;101995.69;5042440;28;49149;-79
2022/12/02 05:36:09;;;;;;;;;65.25;49.75;;;;;6.49;100.00;101983.38;5042858;28;45254;-79
2022/12/02 05:38:34;;;;;;;;;54.50;45.25;;;;;6.61;100.00;101993.41;5041560;28;45329;-81
2022/12/02 05:40:59;;;;;;;;;56.50;40.50;;;;;6.59;100.00;101985.41;5049751;28;45306;-79
2022/12/02 05:43:26;;;;;;;;;52.50;38.25;;;;;6.70;100.00;101982.06;5063037;28;46392;-80
2022/12/02 05:45:55;;;;;;;;;63.75;48.00;;;;;6.70;100.00;101984.75;5063437;28;45224;-80
2022/12/02 05:48:20;;;;;;;;;58.25;45.00;;;;;6.60;100.00;101987.13;5061161;28;45280;-80
2022/12/02 05:50:46;;;;;;;;;61.00;43.00;;;;;6.50;100.00;101975.16;5062038;28;45258;-80
2022/12/02 05:53:21;;;;;;;;;55.75;43.75;;;;;6.67;100.00;101993.03;5078169;28;47164;-81
2022/12/02 05:55:47;;;;;;;;;57.00;43.75;;;;;6.68;100.00;101977.69;5063000;28;45358;-79
2022/12/02 05:58:12;;;;;;;;;63.75;48.75;;;;;6.68;100.00;101983.97;5062805;28;45323;-78
2022/12/02 06:00:38;;;;;;;;;50.50;40.75;;;;;6.65;100.00;101979.63;5061108;28;45459;-77
2022/12/02 06:03:13;;;;;;;;;62.75;43.75;;;;;6.70;100.00;101982.06;5061538;28;46620;-77
2022/12/02 06:05:42;;;;;;;;;50.00;41.25;;;;;6.65;100.00;101979.63;5061816;28;45404;-79
2022/12/02 06:08:12;;;;;;;;;61.00;45.25;;;;;6.55;100.00;101975.75;5063062;28;45223;-79
2022/12/02 06:10:38;;;;;;;;;63.50;48.25;;;;;6.61;100.00;101977.22;5065234;28;45483;-78
2022/12/02 06:13:13;;;;;;;;;60.50;43.75;;;;;6.60;100.00;101989.84;5064149;28;46965;-78
2022/12/02 06:15:38;;;;;;;;;63.75;49.00;;;;;6.62;100.00;101989.75;5065525;28;45340;-77
2022/12/02 06:18:14;;;;;;;;;58.00;45.00;;;;;6.61;100.00;101971.81;5065376;28;45475;-79
2022/12/02 06:20:40;;;;;;;;;59.00;41.75;;;;;6.65;100.00;101974.22;5048532;28;45655;-79
2022/12/02 06:23:12;;;;;;;;;65.00;49.25;;;;;6.59;100.00;101973.72;5045058;28;46365;-78
2022/12/02 06:25:38;;;;;;;;;66.75;48.00;;;;;6.65;100.00;101968.81;5044449;28;45265;-80
2022/12/02 06:28:10;;;;;;;;;63.50;47.25;;;;;6.75;100.00;101970.97;5043497;28;45355;-81
2022/12/02 06:30:35;;;;;;;;;58.00;41.50;;;;;6.72;100.00;101958.50;5043912;28;45259;-80
2022/12/02 06:33:01;;;;;;;;;59.75;46.25;;;;;6.75;100.00;101974.53;5044532;28;45478;-80
2022/12/02 06:35:32;;;;;;;;;65.50;47.00;;;;;6.74;100.00;101966.53;5059864;28;45251;-79
2022/12/02 06:38:11;;;;;;;;;56.50;40.75;;;;;6.76;100.00;101973.56;5059561;28;45285;-79
2022/12/02 06:40:38;;;;;;;;;60.00;46.50;;;;;6.71;100.00;101974.81;5043272;28;45372;-79
2022/12/02 06:43:12;;;;;;;;;58.00;42.75;;;;;6.77;100.00;101969.91;5065881;28;46119;-81
2022/12/02 06:45:37;;;;;;;;;64.25;48.25;;;;;6.78;100.00;101962.69;5065073;28;45602;-81
2022/12/02 06:48:15;;;;;;;;;65.25;47.50;;;;;6.86;100.00;101963.09;5064458;28;45425;-80
2022/12/02 06:50:44;;;;;;;;;59.00;46.25;;;;;6.87;100.00;101970.19;5054679;28;45507;-80
2022/12/02 06:53:22;;;;;;;;;61.00;44.75;;;;;6.87;100.00;101965.66;5059819;28;46841;-79
2022/12/02 06:55:49;;;;;;;;;62.25;49.00;;;;;6.84;100.00;101956.91;5062812;28;45435;-79
2022/12/02 06:58:34;;;;;;;;;65.25;52.50;;;;;6.80;100.00;101958.03;5064496;28;45339;-81
2022/12/02 07:01:27;;;;;;;;;67.25;49.50;;;;;6.77;100.00;101961.81;5064983;28;45323;-82
2022/12/02 07:04:08;;;;;;;;;61.50;48.25;;;;;6.83;100.00;101974.94;5064450;28;45434;-82
2022/12/02 07:06:42;;;;;;;;;58.75;47.50;;;;;6.76;100.00;101967.31;5062566;28;45331;-79
2022/12/02 07:09:17;;;;;;;;;62.50;47.50;;;;;6.64;100.00;101967.09;5064709;28;45337;-80
2022/12/02 07:11:48;;;;;;;;;60.25;47.75;;;;;6.55;100.00;101953.28;5065296;28;45349;-80
2022/12/02 07:14:44;;;;;;;;;59.50;46.00;;;;;6.61;100.00;101966.41;5064891;28;46207;-80
2022/12/02 07:17:27;;;;;;;;;61.50;42.50;;;;;6.60;100.00;101970.06;5064371;28;45333;-80
2022/12/02 07:20:07;;;;;;;;;61.75;48.25;;;;;6.67;100.00;101975.97;5056354;28;45314;-80
2022/12/02 07:22:35;;;;;;;;;69.50;49.75;;;;;6.55;100.00;101966.78;5062311;28;45164;-80
2022/12/02 07:25:32;;;;;;;;;63.25;48.00;;;;;6.55;100.00;101977.59;5063321;28;45786;-81
2022/12/02 07:27:58;;;;;;;;;64.25;51.25;;;;;6.55;100.00;101961.38;5062023;28;45322;-79
2022/12/02 07:30:40;;;;;;;;;62.50;47.75;;;;;6.40;100.00;101952.38;5064358;28;45321;-80
2022/12/02 07:33:05;;;;;;;;;60.25;48.25;;;;;6.58;100.00;101961.19;5063866;28;45677;-80
2022/12/02 07:35:31;;;;;;;;;58.75;47.00;;;;;6.64;100.00;101941.94;5064495;28;45285;-81
2022/12/02 07:37:57;;;;;;;;;66.75;50.75;;;;;6.65;100.00;101949.03;5058706;28;45416;-80
2022/12/02 07:40:23;;;;;;;;;61.50;47.75;;;;;6.69;100.00;101969.50;5054086;28;45401;-81
2022/12/02 07:42:48;;;;;;;;;60.00;46.25;;;;;6.62;100.00;101971.72;5053758;28;45465;-81
2022/12/02 07:45:17;;;;;;;;;70.75;52.00;;;;;6.58;100.00;101963.88;5050728;28;46885;-79
2022/12/02 07:47:42;;;;;;;;;67.25;50.75;;;;;6.51;100.00;101958.00;5052721;28;45240;-80
2022/12/02 07:50:09;;;;;;;;;65.50;48.25;;;;;6.50;100.00;101958.09;5055025;28;45182;-79
2022/12/02 07:52:35;;;;;;;;;62.50;48.25;;;;;6.39;100.00;101965.97;5054352;28;45497;-80
2022/12/02 07:55:01;;;;;;;;;68.75;52.25;;;;;6.38;100.00;101967.78;5049132;28;46633;-80
2022/12/02 07:57:27;;;;;;;;;63.25;47.50;;;;;6.25;100.00;101962.25;5064232;28;45396;-79
2022/12/02 07:59:53;;;;;;;;;70.50;48.50;;;;;6.23;100.00;101966.88;5050322;28;45366;-78
2022/12/02 08:02:18;;;;;;;;;72.25;54.25;;;;;6.27;100.00;101966.72;5050325;28;45496;-77
2022/12/02 08:04:43;;;;;;;;;65.75;49.00;;;;;6.21;100.00;101971.47;5050420;28;45420;-78
2022/12/02 08:07:09;;;;;;;;;73.00;56.75;;;;;6.24;100.00;101967.75;5052408;28;45431;-79
2022/12/02 08:09:34;;;;;;;;;74.75;51.50;;;;;6.32;100.00;101970.88;5052018;28;45409;-78
2022/12/02 08:11:59;;;;;;;;;76.00;53.00;;;;;6.31;100.00;101958.31;5052064;28;45316;-79
2022/12/02 08:14:25;;;;;;;;;62.50;45.75;;;;;6.31;100.00;101962.84;5050027;28;46458;-78
2022/12/02 08:16:50;;;;;;;;;65.75;50.75;;;;;6.43;100.00;101962.97;5052674;28;45249;-78
2022/12/02 08:19:15;;;;;;;;;65.75;51.50;;;;;6.48;100.00;101965.41;5052770;28;45427;-76
2022/12/02 08:21:41;;;;;;;;;63.00;48.00;;;;;6.44;100.00;101969.25;5051920;28;45588;-75
2022/12/02 08:24:07;;;;;;;;;70.75;49.75;;;;;6.33;100.00;101960.94;5054728;28;45254;-76
2022/12/02 08:26:33;;;;;;;;;67.25;51.50;;;;;6.43;100.00;101981.03;5049561;28;45288;-77
2022/12/02 08:28:58;;;;;;;;;69.50;52.75;;;;;6.35;100.00;101964.44;5051442;28;45353;-75
2022/12/02 08:31:24;;;;;;;;;79.00;55.50;;;;;6.27;100.00;101966.72;5052259;28;45556;-76
2022/12/02 08:33:50;;;;;;;;;75.75;56.00;;;;;6.17;100.00;101961.84;5048955;28;46900;-77
2022/12/02 08:36:16;;;;;;;;;69.50;52.50;;;;;6.28;100.00;101974.72;5049638;28;45369;-75
2022/12/02 08:38:41;;;;;;;;;74.25;51.75;;;;;6.40;100.00;101973.09;5052367;28;45445;-77
2022/12/02 08:41:07;;;;;;;;;78.75;61.25;;;;;6.27;100.00;101966.72;5052529;28;45367;-75
2022/12/02 08:43:32;;;;;;;;;70.50;52.25;;;;;6.27;100.00;101962.19;5057965;28;45808;-77
2022/12/02 08:45:58;;;;;;;;;73.00;52.00;;;;;6.25;100.00;101959.56;5063267;28;45313;-76
2022/12/02 08:48:23;;;;;;;;;63.25;54.00;;;;;6.28;100.00;101957.66;5048743;28;45249;-75
2022/12/02 08:50:48;;;;;;;;;69.25;46.00;;;;;6.25;100.00;101975.75;5063692;28;45493;-76
2022/12/02 08:53:14;;;;;;;;;57.75;47.50;;;;;6.23;100.00;101964.19;5050581;28;45453;-76
2022/12/02 08:55:39;;;;;;;;;69.00;51.75;;;;;6.26;100.00;101971.22;5050745;28;45260;-75
2022/12/02 08:58:04;;;;;;;;;73.75;51.50;;;;;6.19;100.00;101949.16;5058638;28;45553;-75
2022/12/02 09:00:30;;;;;;;;;77.75;55.25;;;;;6.32;100.00;101948.41;5061829;28;45464;-75
2022/12/02 09:02:56;;;;;;;;;78.50;57.50;;;;;6.33;100.00;101940.22;5060401;28;46347;-75
2022/12/02 09:05:21;;;;;;;;;79.25;59.50;;;;;6.34;100.00;101951.88;5050239;28;45258;-75
2022/12/02 09:07:46;;;;;;;;;72.00;52.25;;;;;6.39;100.00;101964.13;5055943;28;45412;-75
2022/12/02 09:10:12;;;;;;;;;78.00;54.50;;;;;6.31;100.00;101947.53;5061872;28;45336;-75
2022/12/02 09:12:38;;;;;;;;;66.75;51.00;;;;;6.47;100.00;101961.84;5061278;28;48305;-75
2022/12/02 09:15:04;;;;;;;;;82.25;58.75;;;;;6.48;100.00;101962.72;5062361;28;45271;-74
2022/12/02 09:17:30;;;;;;;;;77.00;56.50;;;;;6.38;100.00;101964.22;5062021;28;45401;-75
2022/12/02 09:19:55;;;;;;;;;73.25;52.00;;;;;6.41;100.00;101956.81;5054182;28;45274;-76
2022/12/02 09:22:20;;;;;;;;;75.50;54.25;;;;;6.36;100.00;101945.41;5057089;28;46493;-75
2022/12/02 09:24:46;;;;;;;;;75.50;54.00;;;;;6.38;100.00;101942.63;5062300;28;45264;-76
2022/12/02 09:27:11;;;;;;;;;73.50;55.00;;;;;6.37;100.00;101954.38;5062202;28;45350;-74
2022/12/02 09:29:36;;;;;;;;;75.75;50.00;;;;;6.35;100.00;101949.09;5061892;28;45364;-76
2022/12/02 09:32:02;;;;;;;;;72.25;54.50;;;;;6.36;100.00;101948.13;5062368;28;46286;-76
2022/12/02 09:34:27;;;;;;;;;70.00;50.00;;;;;6.43;100.00;101948.63;5062845;28;45335;-75
2022/12/02 09:36:52;;;;;;;;;68.25;51.75;;;;;6.45;100.00;101952.09;5061542;28;45665;-75
2022/12/02 09:39:18;;;;;;;;;67.25;55.50;;;;;6.50;100.00;101947.31;5063289;28;45324;-75
2022/12/02 09:41:43;;;;;;;;;64.25;49.50;;;;;6.52;100.00;101940.84;5062116;28;45621;-75
2022/12/02 09:44:09;;;;;;;;;69.00;50.75;;;;;6.50;100.00;101928.41;5058995;28;45281;-75
2022/12/02 09:46:35;;;;;;;;;72.50;50.25;;;;;6.54;100.00;101938.91;5060418;28;45329;-75
2022/12/02 09:49:01;;;;;;;;;75.50;57.25;;;;;6.37;100.00;101940.88;5066509;28;45312;-75
2022/12/02 09:51:27;;;;;;;;;77.50;57.25;;;;;6.46;100.00;101940.34;5066066;28;45465;-75
2022/12/02 09:53:53;;;;;;;;;61.75;48.25;;;;;6.50;100.00;101923.84;5065883;28;45366;-75
2022/12/02 09:56:21;;;;;;;;;71.50;55.00;;;;;6.58;100.00;101928.78;5064773;28;45257;-77
2022/12/02 09:58:49;;;;;;;;;72.75;52.75;;;;;6.76;100.00;101937.59;5066349;28;45501;-75
2022/12/02 10:01:15;;;;;;;;;68.75;52.50;;;;;6.61;100.00;101926.78;5065625;28;45374;-75
2022/12/02 10:03:43;;;;;;;;;76.50;53.25;;;;;6.51;100.00;101935.50;5066016;28;45517;-74
2022/12/02 10:06:16;;;;;;;;;78.00;56.25;;;;;6.42;100.00;101933.41;5065167;28;45256;-74
2022/12/02 10:08:42;;;;;;;;;73.50;51.50;;;;;6.49;100.00;101926.66;5066005;28;45421;-75
2022/12/02 10:11:16;;;;;;;;;79.00;57.50;;;;;6.51;100.00;101920.19;5065295;28;45366;-75
2022/12/02 10:13:42;;;;;;;;;79.25;59.50;;;;;6.41;100.00;101920.88;5065682;28;45401;-75
2022/12/02 10:16:12;;;;;;;;;65.50;50.50;;;;;6.60;100.00;101916.06;5065774;28;45209;-76
2022/12/02 10:18:39;;;;;;;;;72.50;55.50;;;;;6.72;100.00;101920.69;5064749;28;45460;-74
2022/12/02 10:21:05;;;;;;;;;62.25;48.75;;;;;6.80;100.00;101923.78;5047585;28;46616;-76
2022/12/02 10:23:31;;;;;;;;;74.00;56.50;;;;;6.81;100.00;101920.13;5045266;28;45385;-77
2022/12/02 10:26:06;;;;;;;;;78.50;56.25;;;;;6.76;100.00;101915.97;5060539;28;45364;-74
2022/12/02 10:28:34;;;;;;;;;83.50;58.50;;;;;6.77;100.00;101913.19;5045584;28;45499;-74
2022/12/02 10:31:11;;;;;;;;;77.25;55.00;;;;;6.74;100.00;101891.75;5043884;28;47139;-74
2022/12/02 10:33:57;;;;;;;;;73.75;56.00;;;;;6.89;100.00;101912.41;5057584;28;45484;-75
2022/12/02 10:36:38;;;;;;;;;74.25;54.50;;;;;6.91;100.00;101905.09;5055186;28;45394;-75
2022/12/02 10:39:32;;;;;;;;;72.50;53.25;;;;;6.80;100.00;101906.72;5064251;28;45413;-75
2022/12/02 10:42:03;;;;;;;;;82.25;57.50;;;;;6.82;100.00;101907.50;5045196;28;47309;-76
2022/12/02 10:44:30;;;;;;;;;77.25;56.00;;;;;6.68;100.00;101902.97;5063577;28;45398;-75
2022/12/02 10:47:25;;;;;;;;;76.50;53.00;;;;;6.83;100.00;101899.28;5063763;28;45393;-75
2022/12/02 10:49:52;;;;;;;;;72.00;52.50;;;;;6.83;100.00;101884.91;5060595;28;45822;-75
2022/12/02 10:52:23;;;;;;;;;69.00;47.75;;;;;6.81;100.00;101878.75;5063360;28;47409;-75
2022/12/02 10:54:52;;;;;;;;;72.25;52.50;;;;;6.61;100.00;101878.16;5063794;28;45376;-75
2022/12/02 10:57:23;;;;;;;;;72.50;56.00;;;;;6.77;100.00;101872.69;5065465;28;45180;-74
2022/12/02 10:59:49;;;;;;;;;77.50;61.25;;;;;6.73;100.00;101878.34;5065701;28;45355;-75
2022/12/02 11:02:32;;;;;;;;;79.75;56.00;;;;;6.72;100.00;101866.69;5064713;28;45527;-74
2022/12/02 11:05:08;;;;;;;;;78.25;59.25;;;;;6.56;100.00;101860.53;5059232;28;46199;-76
2022/12/02 11:07:33;;;;;;;;;72.00;53.75;;;;;6.64;100.00;101864.50;5052252;28;45413;-75
2022/12/02 11:09:58;;;;;;;;;76.75;54.75;;;;;6.71;100.00;101864.09;5064118;28;45326;-74
2022/12/02 11:12:32;;;;;;;;;69.25;52.75;;;;;6.68;100.00;101853.47;5064238;28;46163;-75
2022/12/02 11:14:58;;;;;;;;;76.75;57.75;;;;;6.68;100.00;101858.88;5050902;28;45760;-76
2022/12/02 11:17:45;;;;;;;;;81.25;60.75;;;;;6.69;100.00;101856.09;5064516;28;45345;-75